Time;durP1;ratioP1;P1;durP2;ratioP2;P2;SDS_P1;SDS_P2;PMS_P1;PMS_P2;Temp;Humidity;BMP_temperature;BMP_pressure;BME280_temperature;BME280_humidity;BME280_pressure;Samples;Min_cycle;Max_cycle;Signal;HPM_P1;HPM_P2
2023/09/19 00:01:00;;;;;;;17.48;4.90;;;;;;;15.48;89.14;100638.00;5036884;28;20392;-63
2023/09/19 00:03:26;;;;;;;16.70;5.03;;;;;;;15.59;88.22;100648.63;5056043;28;20043;-63
2023/09/19 00:05:51;;;;;;;19.75;5.40;;;;;;;15.45;88.81;100634.59;5037635;28;20048;-63
2023/09/19 00:08:16;;;;;;;11.93;4.68;;;;;;;15.54;89.07;100653.53;5034536;28;20123;-63
2023/09/19 00:10:43;;;;;;;17.50;5.72;;;;;;;15.52;88.58;100655.50;5053675;28;20048;-63
2023/09/19 00:13:12;;;;;;;18.98;5.47;;;;;;;15.43;89.02;100652.63;5035798;28;20028;-62
2023/09/19 00:15:48;;;;;;;15.07;5.15;;;;;;;15.48;88.72;100662.97;5064645;28;20041;-63
2023/09/19 00:18:15;;;;;;;12.93;5.13;;;;;;;15.51;89.18;100665.38;5053047;28;20035;-62
2023/09/19 00:20:42;;;;;;;16.17;5.38;;;;;;;15.40;88.34;100665.44;5035018;28;20025;-62
2023/09/19 00:23:08;;;;;;;18.20;5.57;;;;;;;15.34;89.48;100664.13;5053205;28;20472;-63
2023/09/19 00:25:37;;;;;;;19.48;5.57;;;;;;;15.32;88.49;100666.09;5056044;28;20032;-62
2023/09/19 00:28:05;;;;;;;14.50;4.93;;;;;;;15.31;89.07;100664.41;5071053;28;20579;-63
2023/09/19 00:30:31;;;;;;;14.82;5.20;;;;;;;15.31;89.21;100679.63;5044847;28;20431;-63
2023/09/19 00:32:56;;;;;;;12.70;5.15;;;;;;;15.27;88.67;100681.75;5062524;28;20040;-62
2023/09/19 00:35:25;;;;;;;18.60;5.78;;;;;;;15.35;88.87;100687.31;5051278;28;20369;-63
2023/09/19 00:37:51;;;;;;;9.50;2.93;;;;;;;15.44;87.64;100689.19;5049419;28;20048;-62
2023/09/19 00:40:17;;;;;;;18.02;5.28;;;;;;;15.25;88.47;100681.00;5058822;28;20114;-63
2023/09/19 00:42:46;;;;;;;15.93;5.43;;;;;;;15.23;87.96;100696.34;5064293;28;20166;-62
2023/09/19 00:45:12;;;;;;;;;;;;;;;15.47;87.00;100692.56;5035571;28;20029;-62
2023/09/19 00:47:43;;;;;;;18.58;5.70;;;;;;;15.31;87.71;100698.41;5049066;28;19920;-63
2023/09/19 00:50:10;;;;;;;12.38;5.15;;;;;;;15.24;86.84;100691.88;5056056;28;20127;-62
2023/09/19 00:52:38;;;;;;;13.68;5.30;;;;;;;15.18;88.19;100701.28;5041025;28;20048;-62
2023/09/19 00:55:05;;;;;;;13.57;4.50;;;;;;;15.12;88.01;100699.13;5069128;28;20056;-63
2023/09/19 00:57:38;;;;;;;14.00;5.13;;;;;;;15.03;88.20;100711.47;5057185;28;20029;-62
2023/09/19 01:00:06;;;;;;;17.58;5.22;;;;;;;15.06;88.12;100719.25;5073537;28;20500;-63
2023/09/19 01:02:32;;;;;;;12.43;4.67;;;;;;;15.09;87.50;100710.94;5054817;28;20113;-63
2023/09/19 01:04:58;;;;;;;13.57;5.22;;;;;;;14.99;87.73;100718.03;5015527;28;20548;-62
2023/09/19 01:07:24;;;;;;;14.85;4.82;;;;;;;15.11;87.21;100718.84;5035871;28;20550;-62
2023/09/19 01:09:50;;;;;;;14.68;5.25;;;;;;;14.98;87.02;100727.06;5022696;28;20029;-63
2023/09/19 01:12:26;;;;;;;14.70;4.72;;;;;;;14.88;87.63;100729.66;5048646;28;20074;-63
2023/09/19 01:15:00;;;;;;;17.02;5.40;;;;;;;14.85;87.80;100719.19;5049761;28;20488;-62
2023/09/19 01:17:46;;;;;;;13.60;5.15;;;;;;;14.91;87.12;100732.09;5041116;28;20024;-63
2023/09/19 01:20:34;;;;;;;18.67;5.40;;;;;;;15.09;86.77;100732.38;5047887;28;20047;-62
2023/09/19 01:23:17;;;;;;;18.65;6.35;;;;;;;14.87;85.99;100735.13;5062882;28;20119;-62
2023/09/19 01:25:48;;;;;;;13.82;4.68;;;;;;;14.89;86.59;100741.22;5066705;28;20372;-62
2023/09/19 01:28:26;;;;;;;17.83;5.47;;;;;;;14.91;86.60;100740.13;5053942;28;20028;-63
2023/09/19 01:30:57;;;;;;;11.65;4.72;;;;;;;14.82;85.94;100738.19;5034043;28;20032;-62
2023/09/19 01:33:23;;;;;;;17.90;5.15;;;;;;;14.77;85.20;100743.94;5055148;28;20029;-62
2023/09/19 01:35:50;;;;;;;16.73;5.03;;;;;;;14.75;85.31;100745.03;5052353;28;20025;-63
2023/09/19 01:38:15;;;;;;;15.80;5.32;;;;;;;14.75;85.14;100743.19;5064930;28;20050;-62
2023/09/19 01:40:43;;;;;;;15.07;5.10;;;;;;;14.74;84.61;100746.88;5051884;28;20029;-63
2023/09/19 01:43:20;;;;;;;12.50;5.07;;;;;;;14.83;85.61;100752.44;5068162;28;20491;-62
2023/09/19 01:46:24;;;;;;;16.00;5.10;;;;;;;14.91;84.24;100753.50;5049581;28;20032;-62
2023/09/19 01:49:15;;;;;;;12.23;5.45;;;;;;;14.77;84.37;100760.00;4984667;28;20078;-62
2023/09/19 01:51:51;;;;;;;19.05;5.88;;;;;;;14.81;82.71;100757.06;5045486;28;20036;-62
2023/09/19 01:54:26;;;;;;;15.82;5.32;;;;;;;14.89;83.67;100757.28;5064185;28;20468;-62
2023/09/19 01:57:01;;;;;;;12.48;5.35;;;;;;;14.80;83.21;100752.69;5066496;28;20033;-63
2023/09/19 01:59:35;;;;;;;17.83;5.53;;;;;;;14.72;83.60;100750.63;5053859;28;20062;-62
2023/09/19 02:02:01;;;;;;;12.68;4.97;;;;;;;14.65;82.67;100738.75;5066655;28;20031;-63
2023/09/19 02:04:27;;;;;;;12.63;5.82;;;;;;;14.70;82.00;100750.75;5052539;28;20029;-63
2023/09/19 02:06:53;;;;;;;18.75;4.90;;;;;;;14.65;81.42;100755.66;5063428;28;20025;-62
2023/09/19 02:09:23;;;;;;;15.20;4.90;;;;;;;14.53;82.72;100746.78;5062004;28;20140;-62
2023/09/19 02:11:51;;;;;;;16.70;5.05;;;;;;;14.60;82.46;100754.31;5055925;28;20020;-62
2023/09/19 02:14:19;;;;;;;11.73;5.03;;;;;;;14.62;82.01;100752.34;5067429;28;20033;-63
2023/09/19 02:16:45;;;;;;;16.38;5.22;;;;;;;14.54;82.47;100745.81;5058079;28;20060;-62
2023/09/19 02:19:11;;;;;;;12.80;5.20;;;;;;;14.55;81.33;100749.34;5044409;28;20027;-63
2023/09/19 02:21:36;;;;;;;16.35;5.20;;;;;;;14.63;81.47;100748.72;5053357;28;20028;-62
2023/09/19 02:24:03;;;;;;;16.23;5.03;;;;;;;14.56;81.64;100751.06;5038940;28;20108;-62
2023/09/19 02:26:30;;;;;;;15.07;5.05;;;;;;;14.55;81.64;100762.72;5065383;28;20035;-62
2023/09/19 02:28:56;;;;;;;14.32;5.45;;;;;;;14.46;81.03;100760.75;5068820;28;20021;-62
2023/09/19 02:31:21;;;;;;;10.98;4.78;;;;;;;14.43;81.47;100764.53;5057888;28;20468;-62
2023/09/19 02:33:47;;;;;;;14.68;5.60;;;;;;;14.40;80.61;100758.56;5061526;28;20024;-62
2023/09/19 02:36:13;;;;;;;15.82;4.82;;;;;;;14.36;81.15;100757.97;5064457;28;20027;-62
2023/09/19 02:38:38;;;;;;;16.08;5.20;;;;;;;14.39;80.27;100759.56;5048583;28;20025;-62
2023/09/19 02:41:04;;;;;;;16.35;4.93;;;;;;;14.32;80.24;100761.84;5056074;28;20025;-62
2023/09/19 02:43:29;;;;;;;12.10;4.18;;;;;;;14.29;80.11;100765.66;5053766;28;20395;-62
2023/09/19 02:45:57;;;;;;;15.65;4.88;;;;;;;14.30;80.70;100766.50;5049715;28;20055;-62
2023/09/19 02:48:22;;;;;;;14.70;5.65;;;;;;;14.24;79.39;100757.13;5052586;28;20502;-62
2023/09/19 02:50:53;;;;;;;12.38;5.00;;;;;;;14.22;79.81;100747.53;5035687;28;20056;-62
2023/09/19 02:53:19;;;;;;;14.27;4.75;;;;;;;14.23;78.99;100760.75;5053110;28;20486;-62
2023/09/19 02:55:44;;;;;;;11.60;4.43;;;;;;;14.26;79.28;100768.53;5038888;28;20047;-62
2023/09/19 02:58:14;;;;;;;13.02;4.50;;;;;;;14.20;79.27;100766.38;5054542;28;20029;-62
2023/09/19 03:00:41;;;;;;;12.23;4.63;;;;;;;14.17;79.43;100768.44;5052761;28;20017;-62
2023/09/19 03:03:08;;;;;;;14.85;4.10;;;;;;;14.17;79.24;100769.28;5048614;28;20028;-62
2023/09/19 03:05:34;;;;;;;11.90;4.60;;;;;;;14.16;79.21;100778.28;5053066;28;20421;-62
2023/09/19 03:08:00;;;;;;;12.18;4.72;;;;;;;14.19;78.32;100780.72;5055667;28;20104;-62
2023/09/19 03:10:29;;;;;;;11.20;5.00;;;;;;;14.09;78.25;100772.59;5053869;28;20086;-62
2023/09/19 03:12:55;;;;;;;12.15;4.82;;;;;;;14.03;78.56;100761.50;5059798;28;20048;-61
2023/09/19 03:15:21;;;;;;;13.85;4.78;;;;;;;14.07;78.61;100773.69;5061060;28;20114;-62
2023/09/19 03:17:48;;;;;;;13.93;4.45;;;;;;;14.13;78.74;100775.88;5065411;28;20035;-62
2023/09/19 03:20:17;;;;;;;13.63;4.68;;;;;;;14.03;78.99;100766.84;5053299;28;20119;-62
2023/09/19 03:22:45;;;;;;;10.57;2.70;;;;;;;14.22;79.35;100780.47;5058630;28;20032;-62
2023/09/19 03:25:11;;;;;;;14.98;4.30;;;;;;;14.12;78.60;100768.81;5038246;28;20506;-62
2023/09/19 03:27:37;;;;;;;13.27;5.05;;;;;;;14.06;78.54;100772.81;5051756;28;20024;-62
2023/09/19 03:30:08;;;;;;;15.13;5.20;;;;;;;14.01;79.12;100774.16;5053280;28;20516;-62
2023/09/19 03:32:43;;;;;;;13.90;4.80;;;;;;;14.13;79.61;100775.88;5057332;28;20050;-62
2023/09/19 03:35:11;;;;;;;14.35;4.63;;;;;;;14.06;79.69;100772.81;5065088;28;20414;-62
2023/09/19 03:37:36;;;;;;;15.13;5.18;;;;;;;14.05;78.94;100773.78;5066312;28;20775;-62
2023/09/19 03:40:04;;;;;;;12.15;4.07;;;;;;;14.05;79.52;100759.56;5055576;28;20027;-62
2023/09/19 03:42:31;;;;;;;15.95;4.75;;;;;;;14.02;79.21;100776.69;5055340;28;20499;-62
2023/09/19 03:44:56;;;;;;;20.73;5.32;;;;;;;13.98;79.88;100759.19;5045283;28;20115;-62
2023/09/19 03:47:22;;;;;;;12.50;4.00;;;;;;;14.08;79.54;100765.50;5058515;28;20108;-62
2023/09/19 03:49:48;;;;;;;14.65;4.93;;;;;;;14.11;79.33;100767.09;5067868;28;20070;-62
2023/09/19 03:52:14;;;;;;;14.65;4.95;;;;;;;14.13;80.02;100765.16;5067342;28;20111;-62
2023/09/19 03:54:43;;;;;;;14.20;4.55;;;;;;;14.13;79.52;100757.13;5062597;28;20071;-62
2023/09/19 03:57:08;;;;;;;15.00;5.00;;;;;;;14.21;80.22;100756.53;5035647;28;20036;-62
2023/09/19 03:59:35;;;;;;;16.10;4.88;;;;;;;14.09;80.45;100758.38;5058996;28;20016;-62
2023/09/19 04:02:04;;;;;;;18.65;5.63;;;;;;;14.13;80.71;100764.31;5069341;28;20099;-63
2023/09/19 04:04:29;;;;;;;16.27;4.32;;;;;;;14.15;80.63;100760.56;5054993;28;20507;-62
2023/09/19 04:06:55;;;;;;;11.88;4.65;;;;;;;14.18;80.47;100768.34;5047183;28;20066;-63
2023/09/19 04:09:20;;;;;;;11.90;4.93;;;;;;;14.11;81.17;100760.91;5064647;28;20141;-61
2023/09/19 04:11:45;;;;;;;14.65;5.00;;;;;;;14.05;81.40;100755.06;5070172;28;20250;-61
2023/09/19 04:14:11;;;;;;;12.88;4.68;;;;;;;13.97;82.08;100741.47;5060979;28;20029;-62
2023/09/19 04:16:36;;;;;;;13.98;4.93;;;;;;;14.03;82.55;100748.13;5065383;28;20367;-62
2023/09/19 04:19:04;;;;;;;13.95;5.43;;;;;;;13.97;82.55;100749.50;5061475;28;20022;-62
2023/09/19 04:21:30;;;;;;;15.25;5.40;;;;;;;14.03;83.09;100762.38;5053686;28;20056;-63
2023/09/19 04:23:58;;;;;;;16.05;5.82;;;;;;;14.04;82.77;100772.09;5057804;28;20063;-63
2023/09/19 04:26:26;;;;;;;18.88;5.68;;;;;;;14.11;82.70;100774.28;5035676;28;20075;-63
2023/09/19 04:28:51;;;;;;;15.00;4.65;;;;;;;14.09;83.07;100787.78;5040222;28;20051;-61
2023/09/19 04:31:18;;;;;;;20.48;5.60;;;;;;;14.11;82.80;100787.66;5065098;28;20048;-63
2023/09/19 04:33:43;;;;;;;17.08;4.97;;;;;;;14.04;82.96;100780.09;5047552;28;20111;-62
2023/09/19 04:36:09;;;;;;;14.85;4.85;;;;;;;14.11;83.03;100799.19;5053656;28;20104;-62
2023/09/19 04:38:35;;;;;;;11.98;4.30;;;;;;;14.02;83.36;100797.25;5054383;28;20028;-62
2023/09/19 04:41:00;;;;;;;13.85;4.95;;;;;;;14.03;84.67;100814.97;5045462;28;20078;-63
2023/09/19 04:43:30;;;;;;;16.42;5.32;;;;;;;14.08;84.35;100823.50;5052903;28;20057;-62
2023/09/19 04:45:55;;;;;;;;;;;;;;;14.21;83.45;100826.09;5049618;28;20107;-63
2023/09/19 04:48:24;;;;;;;16.10;5.20;;;;;;;14.14;84.22;100824.84;5026361;28;19995;-62
2023/09/19 04:50:49;;;;;;;16.90;5.40;;;;;;;14.14;83.80;100832.88;5037261;28;20420;-62
2023/09/19 04:53:15;;;;;;;15.57;5.30;;;;;;;14.19;83.49;100830.69;5035268;28;20272;-63
2023/09/19 04:55:40;;;;;;;18.45;4.55;;;;;;;14.11;83.60;100830.44;5040998;28;20108;-62
2023/09/19 04:58:05;;;;;;;11.93;5.07;;;;;;;14.20;84.16;100845.78;5033761;28;20483;-62
2023/09/19 05:00:34;;;;;;;15.43;5.15;;;;;;;14.12;83.77;100829.47;5038917;28;20021;-62
2023/09/19 05:03:00;;;;;;;16.23;5.38;;;;;;;14.16;83.39;100837.13;5036505;28;20029;-62
2023/09/19 05:05:26;;;;;;;17.00;5.25;;;;;;;14.15;83.93;100840.78;5065011;28;20116;-63
2023/09/19 05:07:53;;;;;;;14.93;5.53;;;;;;;14.14;83.71;100849.78;5050190;28;20021;-62
2023/09/19 05:10:19;;;;;;;16.00;4.85;;;;;;;14.10;83.99;100840.28;5050121;28;20027;-62
2023/09/19 05:12:48;;;;;;;13.95;4.93;;;;;;;14.14;84.42;100848.94;5053717;28;20475;-62
2023/09/19 05:15:19;;;;;;;14.35;4.75;;;;;;;14.06;84.86;100839.69;5049311;28;20025;-63
2023/09/19 05:17:54;;;;;;;11.48;4.13;;;;;;;14.03;85.55;100839.06;5051266;28;20583;-63
2023/09/19 05:20:54;;;;;;;21.10;5.82;;;;;;;14.03;85.72;100842.59;5059691;28;20028;-62
2023/09/19 05:23:12;;;;;;;17.52;5.35;;;;;;;14.00;85.41;100841.97;5043849;28;20041;-63
2023/09/19 05:25:39;;;;;;;14.13;4.85;;;;;;;14.03;85.82;100845.28;5056934;28;20043;-62
2023/09/19 05:28:10;;;;;;;14.45;4.63;;;;;;;14.09;86.03;100851.97;5036455;28;20025;-62
2023/09/19 05:30:36;;;;;;;15.10;4.97;;;;;;;14.02;86.29;100851.56;5058271;28;20499;-62
2023/09/19 05:33:04;;;;;;;11.43;4.75;;;;;;;14.10;85.86;100856.34;5051500;28;20480;-63
2023/09/19 05:35:30;;;;;;;12.18;4.93;;;;;;;14.11;86.26;100858.03;5054475;28;20027;-62
2023/09/19 05:37:55;;;;;;;15.25;5.75;;;;;;;14.07;86.55;100851.22;5052222;28;20431;-62
2023/09/19 05:40:21;;;;;;;15.95;4.80;;;;;;;14.02;86.86;100856.09;5058815;28;20021;-62
2023/09/19 05:42:47;;;;;;;14.60;5.50;;;;;;;14.03;86.55;100858.66;5047697;28;20025;-62
2023/09/19 05:45:14;;;;;;;21.55;5.38;;;;;;;14.01;87.72;100862.41;5056800;28;20020;-62
2023/09/19 05:47:45;;;;;;;14.70;5.40;;;;;;;14.08;88.00;100860.94;5046385;28;20029;-62
2023/09/19 05:50:10;;;;;;;15.95;5.80;;;;;;;14.07;87.13;100853.91;5056337;28;20024;-62
2023/09/19 05:52:40;;;;;;;13.32;4.80;;;;;;;14.10;86.88;100851.00;5034139;28;20039;-62
2023/09/19 05:55:07;;;;;;;15.07;5.20;;;;;;;14.05;87.83;100850.50;5043783;28;20036;-62
2023/09/19 05:57:37;;;;;;;15.35;5.25;;;;;;;14.08;87.83;100844.91;5067383;28;20021;-62
2023/09/19 06:00:08;;;;;;;;;;;;;;;14.19;86.75;100841.41;5050341;28;20033;-62
2023/09/19 06:02:34;;;;;;;20.33;5.32;;;;;;;14.03;87.67;100831.03;5052279;28;19917;-62
2023/09/19 06:04:59;;;;;;;15.63;4.80;;;;;;;14.08;87.54;100851.09;5051728;28;20069;-62
2023/09/19 06:07:26;;;;;;;12.82;6.10;;;;;;;14.06;87.81;100847.72;5049132;28;20017;-62
2023/09/19 06:09:56;;;;;;;14.90;4.63;;;;;;;14.07;88.30;100851.22;5052041;28;20052;-62
2023/09/19 06:12:21;;;;;;;14.55;5.22;;;;;;;14.22;88.47;100847.34;5033332;28;20021;-62
2023/09/19 06:14:47;;;;;;;14.52;5.30;;;;;;;14.16;88.72;100847.84;5053026;28;20028;-62
2023/09/19 06:17:12;;;;;;;14.60;4.97;;;;;;;14.21;88.39;100845.66;5064505;28;20064;-62
2023/09/19 06:19:38;;;;;;;13.38;4.97;;;;;;;14.09;88.65;100843.94;5060786;28;20033;-62
2023/09/19 06:22:04;;;;;;;20.70;6.45;;;;;;;14.14;89.03;100859.63;5050633;28;20016;-62
2023/09/19 06:24:30;;;;;;;18.58;5.60;;;;;;;14.12;89.66;100861.56;5059749;28;20033;-62
2023/09/19 06:26:55;;;;;;;14.73;5.63;;;;;;;14.10;89.50;100856.34;5066631;28;20039;-62
2023/09/19 06:29:23;;;;;;;15.60;5.07;;;;;;;14.11;89.40;100870.56;5062162;28;20029;-62
2023/09/19 06:31:48;;;;;;;17.90;5.78;;;;;;;14.13;89.51;100872.16;5033199;28;20492;-62
2023/09/19 06:34:17;;;;;;;18.73;5.43;;;;;;;14.26;89.08;100878.22;5054346;28;20039;-62
2023/09/19 06:36:43;;;;;;;19.77;6.40;;;;;;;14.17;89.39;100878.97;5053458;28;20032;-62
2023/09/19 06:39:10;;;;;;;20.75;5.72;;;;;;;14.17;89.81;100875.44;5030899;28;20021;-62
2023/09/19 06:41:38;;;;;;;12.75;5.68;;;;;;;14.17;90.30;100878.09;5044505;28;20025;-62
2023/09/19 06:44:05;;;;;;;15.00;5.60;;;;;;;14.23;89.96;100886.50;5044670;28;20021;-62
2023/09/19 06:46:32;;;;;;;13.88;5.30;;;;;;;14.15;89.66;100880.03;5029886;28;20104;-62
2023/09/19 06:48:58;;;;;;;19.73;5.72;;;;;;;14.30;89.86;100877.03;5045033;28;20045;-62
2023/09/19 06:51:23;;;;;;;21.02;5.50;;;;;;;14.28;89.94;100878.13;5032797;28;20033;-62
2023/09/19 06:53:49;;;;;;;13.93;5.00;;;;;;;14.30;90.20;100890.41;5051596;28;20103;-62
2023/09/19 06:56:14;;;;;;;16.15;5.57;;;;;;;14.26;89.86;100878.22;5059353;28;20234;-62
2023/09/19 06:58:39;;;;;;;19.02;5.60;;;;;;;14.34;89.91;100884.81;5064179;28;20037;-62
2023/09/19 07:01:05;;;;;;;15.43;5.20;;;;;;;14.36;89.98;100883.75;5051489;28;20021;-62
2023/09/19 07:03:33;;;;;;;17.58;4.90;;;;;;;14.42;89.91;100895.78;5060873;28;20534;-62
2023/09/19 07:05:59;;;;;;;14.05;5.50;;;;;;;14.44;89.70;100896.50;5056638;28;20032;-62
2023/09/19 07:08:28;;;;;;;15.55;5.93;;;;;;;14.42;89.01;100880.56;5059446;28;20053;-62
2023/09/19 07:10:54;;;;;;;18.38;5.93;;;;;;;14.49;89.31;100881.78;5070707;28;20033;-62
2023/09/19 07:13:22;;;;;;;18.35;5.75;;;;;;;14.49;89.66;100889.81;5040432;28;20425;-63
2023/09/19 07:15:47;;;;;;;17.50;5.22;;;;;;;14.58;89.81;100890.09;5036232;28;20444;-62
2023/09/19 07:18:15;;;;;;;15.55;5.63;;;;;;;14.55;89.69;100899.22;5060542;28;20031;-63
2023/09/19 07:20:49;;;;;;;18.92;5.78;;;;;;;14.59;89.24;100889.13;5023218;28;20043;-62
2023/09/19 07:23:20;;;;;;;18.73;5.65;;;;;;;14.60;89.78;100898.88;5071990;28;20023;-61
2023/09/19 07:25:46;;;;;;;15.32;5.07;;;;;;;14.66;89.53;100891.19;5069385;28;20029;-62
2023/09/19 07:28:12;;;;;;;17.65;5.07;;;;;;;14.70;90.26;100906.03;5035601;28;20021;-62
2023/09/19 07:30:37;;;;;;;13.65;6.43;;;;;;;14.68;88.48;100889.25;5066814;28;20073;-62
2023/09/19 07:33:04;;;;;;;16.52;5.50;;;;;;;14.71;88.65;100888.16;5053829;28;20128;-62
2023/09/19 07:35:31;;;;;;;14.13;5.15;;;;;;;14.77;88.91;100876.97;5053305;28;20128;-62
2023/09/19 07:37:57;;;;;;;17.38;5.85;;;;;;;14.82;88.82;100887.28;5052779;28;20539;-62
2023/09/19 07:40:23;;;;;;;20.45;6.07;;;;;;;14.83;88.66;100883.66;5070762;28;20472;-62
2023/09/19 07:42:50;;;;;;;12.30;5.25;;;;;;;14.89;88.80;100884.00;5038492;28;20024;-62
2023/09/19 07:45:18;;;;;;;16.38;5.60;;;;;;;14.99;88.51;100892.97;5071386;28;20028;-62
2023/09/19 07:47:47;;;;;;;15.45;5.80;;;;;;;15.04;87.76;100895.31;5068910;28;20040;-62
2023/09/19 07:50:18;;;;;;;15.70;4.85;;;;;;;15.10;87.21;100897.47;5062241;28;20029;-62
2023/09/19 07:52:44;;;;;;;19.10;5.60;;;;;;;15.15;87.13;100894.44;5066617;28;20043;-62
2023/09/19 07:55:17;;;;;;;16.48;5.35;;;;;;;15.22;87.01;100891.09;5071777;28;20379;-62
2023/09/19 07:57:46;;;;;;;13.48;4.93;;;;;;;15.37;87.83;100905.06;5045484;28;20021;-62
2023/09/19 08:00:12;;;;;;;15.52;5.22;;;;;;;15.40;86.23;100888.75;5084128;28;20034;-62
2023/09/19 08:02:39;;;;;;;14.27;5.05;;;;;;;15.48;86.00;100895.31;5060927;28;20110;-62
2023/09/19 08:05:12;;;;;;;13.90;4.82;;;;;;;15.51;85.80;100892.38;5078150;28;20040;-63
2023/09/19 08:07:38;;;;;;;14.43;5.47;;;;;;;15.61;85.13;100901.34;5063324;28;20029;-62
2023/09/19 08:10:08;;;;;;;17.38;5.18;;;;;;;15.69;85.04;100908.78;5037921;28;20068;-62
2023/09/19 08:12:45;;;;;;;;;;;;;;;15.85;84.72;100911.88;5060067;28;20060;-62
2023/09/19 08:15:12;;;;;;;16.45;5.13;;;;;;;15.73;84.88;100913.75;5053404;28;19913;-62
2023/09/19 08:17:37;;;;;;;16.83;5.80;;;;;;;15.76;84.96;100910.81;5035350;28;20021;-62
2023/09/19 08:20:05;;;;;;;15.90;4.95;;;;;;;15.78;83.75;100887.41;5053058;28;20039;-63
2023/09/19 08:22:31;;;;;;;14.15;5.40;;;;;;;15.93;83.77;100909.41;5052802;28;20029;-62
2023/09/19 08:25:00;;;;;;;16.00;6.07;;;;;;;15.96;82.71;100909.13;5052961;28;20038;-62
2023/09/19 08:27:28;;;;;;;16.73;5.15;;;;;;;15.98;83.65;100896.44;5053073;28;20023;-62
2023/09/19 08:29:54;;;;;;;16.60;4.80;;;;;;;16.12;82.48;100898.81;5053164;28;20115;-62
2023/09/19 08:32:24;;;;;;;17.10;5.20;;;;;;;16.27;80.88;100890.44;5052938;28;20377;-62
2023/09/19 08:34:50;;;;;;;17.38;5.25;;;;;;;16.19;81.42;100899.13;5052899;28;20560;-62
2023/09/19 08:37:17;;;;;;;17.13;5.47;;;;;;;16.22;81.62;100911.44;5052306;28;20108;-62
2023/09/19 08:39:42;;;;;;;15.93;5.28;;;;;;;16.17;82.18;100893.03;5053122;28;20386;-62
2023/09/19 08:42:08;;;;;;;13.48;5.25;;;;;;;16.41;81.68;100900.78;5052772;28;20100;-62
2023/09/19 08:44:37;;;;;;;15.25;5.28;;;;;;;16.41;80.79;100908.84;5053026;28;20029;-62
2023/09/19 08:47:15;;;;;;;13.38;4.55;;;;;;;16.47;80.77;100913.72;5062107;28;20027;-63
2023/09/19 08:49:49;;;;;;;19.40;5.45;;;;;;;16.44;79.73;100902.38;5070270;28;20170;-63
2023/09/19 08:52:27;;;;;;;14.25;5.18;;;;;;;16.46;80.30;100905.78;5053721;28;20435;-63
2023/09/19 08:54:57;;;;;;;16.20;5.18;;;;;;;16.49;80.44;100909.03;5069417;28;20039;-62
2023/09/19 08:57:23;;;;;;;14.05;4.95;;;;;;;16.59;79.41;100909.09;5050538;28;20025;-62
2023/09/19 08:59:49;;;;;;;19.00;5.57;;;;;;;16.62;80.13;100911.53;5055555;28;20388;-62
2023/09/19 09:02:17;;;;;;;11.93;5.28;;;;;;;16.83;80.71;100903.44;5070157;28;20028;-62
2023/09/19 09:04:44;;;;;;;16.85;5.55;;;;;;;16.89;79.04;100891.31;5050831;28;20422;-62
2023/09/19 09:07:14;;;;;;;14.60;4.90;;;;;;;17.07;78.84;100896.88;5062638;28;20090;-62
2023/09/19 09:09:43;;;;;;;13.77;5.05;;;;;;;17.12;78.46;100898.16;5054301;28;20087;-62
2023/09/19 09:12:13;;;;;;;;;;;;;;;17.30;78.27;100901.00;5057703;28;20025;-62
2023/09/19 09:14:39;;;;;;;;;;;;;;;17.42;76.97;100905.28;5062367;28;20007;-62
2023/09/19 09:17:04;;;;;;;16.80;4.95;;;;;;;17.27;77.39;100909.34;5069664;28;19948;-62
2023/09/19 09:19:30;;;;;;;13.32;4.80;;;;;;;17.44;75.99;100906.00;5056462;28;20056;-62
2023/09/19 09:22:06;;;;;;;14.07;5.35;;;;;;;17.60;75.77;100913.50;5051507;28;20028;-62
2023/09/19 09:24:33;;;;;;;15.57;4.65;;;;;;;17.65;73.87;100897.78;5070545;28;20032;-62
2023/09/19 09:27:00;;;;;;;17.13;5.13;;;;;;;17.59;74.59;100916.31;5071478;28;20029;-62
2023/09/19 09:29:43;;;;;;;13.70;5.20;;;;;;;17.66;74.95;100906.69;5058857;28;20024;-62
2023/09/19 09:32:26;;;;;;;17.80;5.18;;;;;;;17.79;73.88;100923.44;5035076;28;20120;-63
2023/09/19 09:34:56;;;;;;;15.15;5.32;;;;;;;17.86;73.40;100908.44;5052027;28;20021;-63
2023/09/19 09:37:30;;;;;;;15.07;4.88;;;;;;;18.04;72.66;100907.72;5051227;28;20029;-62
2023/09/19 09:39:58;;;;;;;14.30;4.78;;;;;;;18.17;71.96;100892.94;5052755;28;20031;-63
2023/09/19 09:42:38;;;;;;;15.40;4.70;;;;;;;18.28;72.90;100894.63;5051634;28;20087;-62
2023/09/19 09:45:13;;;;;;;18.33;6.32;;;;;;;18.41;71.13;100901.53;5051924;28;20027;-62
2023/09/19 09:47:58;;;;;;;15.55;5.28;;;;;;;18.35;69.65;100887.66;5051363;28;20304;-62
2023/09/19 09:50:29;;;;;;;13.93;4.43;;;;;;;18.36;69.72;100894.75;5052088;28;20033;-62
2023/09/19 09:53:02;;;;;;;10.73;5.10;;;;;;;18.34;69.49;100890.50;5034012;28;20468;-62
2023/09/19 09:55:31;;;;;;;14.00;5.18;;;;;;;18.67;69.14;100881.00;5051935;28;20032;-62
2023/09/19 09:58:17;;;;;;;13.10;4.88;;;;;;;18.83;68.70;100905.50;5051599;28;20129;-62
2023/09/19 10:00:57;;;;;;;13.77;4.65;;;;;;;18.68;67.95;100895.31;5052666;28;20431;-63
2023/09/19 10:03:32;;;;;;;15.00;5.38;;;;;;;18.76;67.07;100890.91;5051493;28;20021;-62
2023/09/19 10:05:58;;;;;;;13.63;4.18;;;;;;;18.78;66.83;100888.94;5033084;28;20032;-62
2023/09/19 10:08:24;;;;;;;15.48;5.20;;;;;;;18.86;66.45;100887.38;5051562;28;20386;-62
2023/09/19 10:13:21;;;;;;;14.02;4.40;;;;;;;18.62;66.35;100902.19;5051358;28;20037;-62
2023/09/19 10:15:54;;;;;;;13.77;4.88;;;;;;;19.03;66.51;100891.91;5051119;28;20096;-62
2023/09/19 10:18:26;;;;;;;12.73;4.70;;;;;;;19.11;65.67;100904.66;5051304;28;20099;-63
2023/09/19 10:20:52;;;;;;;12.20;5.18;;;;;;;19.35;64.28;100893.28;5052103;28;20482;-62
2023/09/19 10:23:23;;;;;;;15.07;4.72;;;;;;;19.54;65.05;100881.53;5051406;28;20104;-63
2023/09/19 10:25:50;;;;;;;18.85;4.50;;;;;;;19.67;64.45;100874.75;5051191;28;20098;-62
2023/09/19 10:28:22;;;;;;;15.38;4.00;;;;;;;19.73;63.68;100874.13;5054571;28;20021;-62
2023/09/19 10:30:50;;;;;;;15.15;4.50;;;;;;;19.93;62.35;100879.34;5055518;28;20115;-63
2023/09/19 10:33:19;;;;;;;13.25;4.40;;;;;;;19.81;60.51;100886.00;5058946;28;20434;-62
2023/09/19 10:35:46;;;;;;;12.30;3.85;;;;;;;19.89;61.54;100886.06;5058567;28;20047;-62
2023/09/19 10:38:19;;;;;;;11.23;4.22;;;;;;;20.20;62.11;100892.69;5055341;28;20448;-62
2023/09/19 10:40:47;;;;;;;9.15;3.72;;;;;;;20.34;61.28;100898.53;5056108;28;20385;-62
2023/09/19 10:43:20;;;;;;;10.63;3.53;;;;;;;20.33;59.78;100897.72;5037325;28;20388;-62
2023/09/19 10:45:49;;;;;;;11.30;4.38;;;;;;;20.34;58.49;100883.19;5054895;28;20431;-62
2023/09/19 10:48:18;;;;;;;16.17;4.30;;;;;;;20.55;58.53;100888.22;5036920;28;20448;-62
2023/09/19 10:51:04;;;;;;;12.85;3.85;;;;;;;20.61;59.65;100884.03;5060550;28;20021;-62
2023/09/19 10:53:42;;;;;;;9.43;3.50;;;;;;;20.65;60.21;100885.44;5074980;28;20494;-62
2023/09/19 10:56:14;;;;;;;12.20;4.50;;;;;;;20.67;59.06;100890.66;5055241;28;20031;-63
2023/09/19 10:58:44;;;;;;;11.77;3.92;;;;;;;20.50;56.94;100879.75;5074911;28;20025;-62
2023/09/19 11:01:14;;;;;;;8.85;3.80;;;;;;;20.42;57.26;100882.41;5044371;28;20056;-62
2023/09/19 11:03:43;;;;;;;11.57;4.05;;;;;;;20.59;59.44;100873.41;5038225;28;20545;-62
2023/09/19 11:06:18;;;;;;;7.32;3.65;;;;;;;21.01;57.38;100866.31;5055563;28;20029;-63
2023/09/19 11:09:15;;;;;;;10.90;3.67;;;;;;;21.15;57.52;100854.84;5052767;28;20013;-62
2023/09/19 11:11:57;;;;;;;13.13;4.32;;;;;;;21.39;54.55;100842.41;5047168;28;20029;-63
2023/09/19 11:14:25;;;;;;;11.90;3.60;;;;;;;21.54;53.38;100852.38;5054315;28;20024;-63
2023/09/19 11:17:13;;;;;;;11.40;3.63;;;;;;;22.05;54.71;100852.19;5069798;28;20494;-62
2023/09/19 11:19:57;;;;;;;11.25;3.50;;;;;;;22.24;53.41;100861.88;5070055;28;20045;-63
2023/09/19 11:22:26;;;;;;;8.75;3.90;;;;;;;22.51;50.15;100851.63;5069324;28;20052;-63
2023/09/19 11:24:51;;;;;;;10.48;3.40;;;;;;;22.92;48.76;100854.16;5055457;28;20025;-63
2023/09/19 11:27:18;;;;;;;9.20;3.00;;;;;;;23.22;48.29;100844.34;5054113;28;20024;-63
2023/09/19 11:29:44;;;;;;;13.60;3.75;;;;;;;23.38;47.16;100836.06;5054199;28;20276;-63